createdAt,value
2023-01-08T01:14:45.315Z,10.73
2023-01-08T01:45:36.469Z,13.23
2023-01-08T02:17:51.384Z,10.90
2023-01-08T02:28:17.071Z,11.10
2023-01-08T02:33:18.276Z,12.53
2023-01-08T02:38:15.577Z,11.50
2023-01-08T02:48:58.031Z,12.23
2023-01-08T02:59:07.364Z,12.57
2023-01-08T03:04:10.732Z,12.27
2023-01-08T03:09:02.637Z,11.67
2023-01-08T03:14:15.862Z,10.07
2023-01-08T03:19:32.604Z,11.30
2023-01-08T03:24:39.470Z,12.77
2023-01-08T03:29:34.887Z,12.07
2023-01-08T03:34:30.379Z,11.40
2023-01-08T03:39:38.058Z,11.30
2023-01-08T03:44:29.890Z,12.23
2023-01-08T03:54:35.407Z,11.43
2023-01-08T03:59:27.183Z,11.67
2023-01-08T04:04:19.070Z,11.53
2023-01-08T04:09:10.867Z,12.13
2023-01-08T04:14:02.822Z,11.83
2023-01-08T04:18:54.531Z,11.33
2023-01-08T04:23:47.091Z,11.27
2023-01-08T04:28:38.868Z,12.50
2023-01-08T04:33:34.565Z,11.40
2023-01-08T04:38:26.367Z,12.13
2023-01-08T04:43:18.123Z,11.07
2023-01-08T04:48:10.916Z,11.80
2023-01-08T04:53:02.601Z,11.60
2023-01-08T04:57:54.279Z,12.37
2023-01-08T05:02:46.457Z,11.57
2023-01-08T05:07:38.214Z,12.00
2023-01-08T05:12:29.964Z,11.47
2023-01-08T05:17:21.734Z,12.80
2023-01-08T05:22:13.759Z,13.47
2023-01-08T05:27:06.069Z,13.70
2023-01-08T05:31:57.899Z,14.20
2023-01-08T05:36:50.025Z,13.10
2023-01-08T05:41:41.809Z,14.23
2023-01-08T05:46:33.738Z,13.87
2023-01-08T05:51:26.084Z,14.07
2023-01-08T05:56:18.480Z,14.43
2023-01-08T06:01:20.189Z,13.87
2023-01-08T06:06:13.256Z,13.37
2023-01-08T06:11:09.670Z,13.50
2023-01-08T06:16:03.506Z,14.60
2023-01-08T06:20:55.795Z,13.93
2023-01-08T06:25:57.167Z,13.67
2023-01-08T06:30:49.402Z,15.00
2023-01-08T06:35:41.268Z,15.13
2023-01-08T06:40:33.178Z,14.80
2023-01-08T06:45:26.169Z,15.90
2023-01-08T06:50:20.870Z,14.23
2023-01-08T06:55:13.038Z,14.20
2023-01-08T07:00:06.613Z,13.17
2023-01-08T07:04:59.022Z,13.03
2023-01-08T07:09:51.254Z,12.80
2023-01-08T07:14:46.555Z,12.40
2023-01-08T07:19:38.571Z,11.13
2023-01-08T07:24:30.595Z,11.83
2023-01-08T07:29:22.459Z,10.87
2023-01-08T07:34:18.132Z,11.50
2023-01-08T07:39:14.894Z,12.23
2023-01-08T07:49:12.854Z,11.63
2023-01-08T07:54:05.277Z,11.00
2023-01-08T07:58:57.465Z,11.07
2023-01-08T08:03:53.333Z,10.60
2023-01-08T08:08:45.816Z,12.50
2023-01-08T08:13:42.566Z,11.43
2023-01-08T08:18:34.999Z,12.03
2023-01-08T08:23:28.736Z,11.87
2023-01-08T08:28:21.228Z,11.83
2023-01-08T08:33:21.306Z,11.70
2023-01-08T08:38:13.284Z,12.30
2023-01-08T08:43:06.406Z,13.40
2023-01-08T08:53:06.997Z,14.37
2023-01-08T08:58:25.840Z,14.83
2023-01-08T09:03:21.987Z,13.80
2023-01-08T09:08:14.480Z,14.23
2023-01-08T09:13:06.644Z,14.87
2023-01-08T09:18:07.206Z,13.20
2023-01-08T09:23:10.605Z,12.90
2023-01-08T09:28:12.969Z,13.73
2023-01-08T09:38:12.553Z,12.90
2023-01-08T09:43:09.601Z,12.30
2023-01-08T17:40:53.813Z,11.57
2023-01-08T17:45:55.099Z,13.33
2023-01-08T17:50:48.403Z,10.77
2023-01-08T17:55:41.423Z,10.30
2023-01-08T18:00:33.214Z,10.07
2023-01-08T18:05:25.274Z,10.70
2023-01-08T18:10:18.612Z,10.93
2023-01-08T18:15:10.971Z,11.27
2023-01-08T18:20:02.779Z,10.77
2023-01-08T18:24:54.597Z,11.23
2023-01-08T18:29:46.462Z,10.20
2023-01-08T18:34:39.192Z,10.27
2023-01-08T18:39:31.865Z,9.43
2023-01-08T18:44:27.774Z,10.77
2023-01-08T18:49:21.800Z,10.20
2023-01-08T18:54:13.685Z,11.03
2023-01-08T18:59:08.269Z,11.93
2023-01-08T19:04:03.926Z,12.33
2023-01-08T19:09:00.830Z,12.47
2023-01-08T19:13:57.349Z,12.90
2023-01-08T19:44:23.542Z,11.10
2023-01-08T20:25:28.574Z,14.23
2023-01-08T20:35:35.055Z,14.10
2023-01-08T21:16:51.836Z,12.27
2023-01-08T23:19:53.439Z,7.33
2023-01-08T23:29:52.062Z,6.80
2023-01-08T23:34:47.828Z,7.30
2023-01-08T23:39:40.917Z,6.37
2023-01-08T23:49:40.799Z,7.83
2023-01-08T23:54:33.149Z,7.90
2023-01-08T23:59:26.186Z,7.33
